Terminal Aerodrome Forecast
Issued by NWS

Home | Current Version | Previous Version | Text Only | Print | Product List | Glossary On
Versions: 1 2 3 4 5 6 7 8 9 10 11 12 13
000
FTAK31 PAFA 141720
TAFAFA
TAF
PAFA 141720Z 1418/1524 05003KT P6SM SCT100 SCT200
     FM142300 09003KT P6SM VCSH SCT040 BKN100 BKN200
     FM150500 00000KT 1 1/2SM -SN BR OVC015
     FM151300 00000KT 4SM -SN OVC015
     FM151700 00000KT P6SM VCSH SCT025 OVC050=

USA.gov is the U.S. government's official web portal to all federal, state and local government web resources and services.